Time;durP1;ratioP1;P1;durP2;ratioP2;P2;SDS_P1;SDS_P2;PMS_P1;PMS_P2;Temp;Humidity;BMP_temperature;BMP_pressure;BME280_temperature;BME280_humidity;BME280_pressure;Samples;Min_cycle;Max_cycle;Signal;HPM_P1;HPM_P2
2021/11/26 00:00:57;;;;;;;2.92;0.90;;;;;;;;;;5074670;28;20035;-67
2021/11/26 00:03:23;;;;;;;4.93;0.70;;;;;;;;;;5075128;28;20364;-67
2021/11/26 00:05:49;;;;;;;2.28;0.70;;;;;;;;;;5074987;28;20110;-67
2021/11/26 00:08:15;;;;;;;5.32;0.90;;;;;;;;;;5074957;28;20051;-67
2021/11/26 00:10:41;;;;;;;2.28;0.63;;;;;;;;;;5074826;28;20388;-67
2021/11/26 00:13:10;;;;;;;3.45;1.13;;;;;;;;;;5056927;28;20029;-67
2021/11/26 00:15:38;;;;;;;2.13;0.70;;;;;;;;;;5056191;28;20036;-66
2021/11/26 00:18:08;;;;;;;2.15;0.70;;;;;;;;;;5074161;28;20472;-66
2021/11/26 00:20:35;;;;;;;4.07;1.25;;;;;;;;;;5075094;28;20024;-66
2021/11/26 00:23:01;;;;;;;1.98;0.88;;;;;;;;;;5074579;28;20071;-67
2021/11/26 00:25:27;;;;;;;1.85;1.00;;;;;;;;;;5074726;28;20028;-66
2021/11/26 00:27:53;;;;;;;1.65;0.55;;;;;;;;;;5056505;28;20456;-67
2021/11/26 00:30:19;;;;;;;2.30;0.70;;;;;;;;;;5074675;28;20082;-67
2021/11/26 00:32:45;;;;;;;2.63;0.68;;;;;;;;;;5056616;28;20024;-67
2021/11/26 00:35:11;;;;;;;3.15;0.70;;;;;;;;;;5074408;28;20078;-66
2021/11/26 00:37:37;;;;;;;4.07;0.80;;;;;;;;;;5074395;28;20021;-66
2021/11/26 00:40:04;;;;;;;1.60;0.70;;;;;;;;;;5074353;28;20391;-67
2021/11/26 00:42:30;;;;;;;2.60;0.65;;;;;;;;;;5074163;28;20035;-67
2021/11/26 00:44:56;;;;;;;3.25;0.70;;;;;;;;;;5074502;28;20519;-66
2021/11/26 00:47:22;;;;;;;9.88;0.80;;;;;;;;;;5073895;28;20099;-68
2021/11/26 00:49:50;;;;;;;5.35;0.80;;;;;;;;;;5074043;28;20460;-67
2021/11/26 00:52:16;;;;;;;6.95;0.70;;;;;;;;;;5074061;28;20032;-67
2021/11/26 00:54:42;;;;;;;3.30;0.75;;;;;;;;;;5074037;28;20024;-67
2021/11/26 00:57:09;;;;;;;2.60;0.75;;;;;;;;;;5074195;28;20012;-67
2021/11/26 00:59:35;;;;;;;5.88;0.75;;;;;;;;;;5073974;28;20020;-67
2021/11/26 01:02:02;;;;;;;4.10;0.65;;;;;;;;;;5073991;28;20723;-67
2021/11/26 01:04:28;;;;;;;7.43;0.85;;;;;;;;;;5073184;28;20086;-67
2021/11/26 01:06:54;;;;;;;2.97;0.70;;;;;;;;;;5052486;28;20223;-67
2021/11/26 01:09:20;;;;;;;5.55;0.80;;;;;;;;;;5053854;28;20116;-66
2021/11/26 01:11:46;;;;;;;4.97;0.70;;;;;;;;;;5053795;28;20052;-66
2021/11/26 01:14:12;;;;;;;3.25;0.90;;;;;;;;;;5053936;28;20033;-67
2021/11/26 01:16:38;;;;;;;6.80;0.80;;;;;;;;;;5053866;28;20128;-67
2021/11/26 01:19:04;;;;;;;2.42;0.70;;;;;;;;;;5053906;28;20028;-67
2021/11/26 01:21:30;;;;;;;3.53;0.70;;;;;;;;;;5053632;28;20487;-66
2021/11/26 01:23:56;;;;;;;3.55;0.70;;;;;;;;;;5053866;28;20059;-67
2021/11/26 01:26:22;;;;;;;1.70;0.77;;;;;;;;;;5064224;28;20078;-67
2021/11/26 01:28:49;;;;;;;5.72;0.68;;;;;;;;;;5073612;28;20036;-66
2021/11/26 01:31:15;;;;;;;5.30;0.70;;;;;;;;;;5072701;28;20036;-67
2021/11/26 01:33:42;;;;;;;4.95;0.70;;;;;;;;;;5073471;28;20066;-67
2021/11/26 01:36:08;;;;;;;3.50;0.63;;;;;;;;;;5073561;28;20029;-67
2021/11/26 01:38:34;;;;;;;1.58;0.70;;;;;;;;;;5073224;28;20028;-66
2021/11/26 01:41:00;;;;;;;12.38;1.55;;;;;;;;;;5072973;28;20025;-67
2021/11/26 01:43:26;;;;;;;2.85;0.50;;;;;;;;;;5073344;28;20050;-67
2021/11/26 01:45:53;;;;;;;3.85;0.85;;;;;;;;;;5073121;28;20031;-67
2021/11/26 01:48:20;;;;;;;6.20;0.68;;;;;;;;;;5073330;28;20024;-67
2021/11/26 01:50:46;;;;;;;1.70;0.52;;;;;;;;;;5073548;28;20039;-67
2021/11/26 01:53:12;;;;;;;1.80;0.50;;;;;;;;;;5072891;28;20028;-66
2021/11/26 01:55:38;;;;;;;1.90;0.60;;;;;;;;;;5073420;28;20020;-67
2021/11/26 01:58:05;;;;;;;4.47;0.52;;;;;;;;;;5073287;28;20025;-66
2021/11/26 02:00:32;;;;;;;1.00;0.50;;;;;;;;;;5073306;28;20070;-66
2021/11/26 02:02:58;;;;;;;4.70;0.80;;;;;;;;;;5073298;28;20081;-67
2021/11/26 02:05:24;;;;;;;1.75;0.70;;;;;;;;;;5055338;28;20032;-67
2021/11/26 02:07:51;;;;;;;3.78;0.63;;;;;;;;;;5071915;28;20025;-67
2021/11/26 02:10:17;;;;;;;3.83;0.70;;;;;;;;;;5072669;28;20056;-67
2021/11/26 02:12:43;;;;;;;2.00;0.70;;;;;;;;;;5073120;28;20032;-67
2021/11/26 02:15:09;;;;;;;2.47;0.80;;;;;;;;;;5054905;28;20376;-67
2021/11/26 02:17:35;;;;;;;2.53;0.70;;;;;;;;;;5054652;28;20021;-67
2021/11/26 02:20:01;;;;;;;2.83;0.57;;;;;;;;;;5072725;28;20020;-67
2021/11/26 02:22:27;;;;;;;3.30;0.60;;;;;;;;;;5073084;28;20102;-67
2021/11/26 02:24:53;;;;;;;3.10;0.70;;;;;;;;;;5072324;28;20032;-67
2021/11/26 02:27:20;;;;;;;2.08;0.60;;;;;;;;;;5073096;28;20028;-67
2021/11/26 02:29:54;;;;;;;1.48;0.50;;;;;;;;;;5072791;28;20037;-67
2021/11/26 02:32:20;;;;;;;2.17;0.60;;;;;;;;;;5072781;28;20024;-67
2021/11/26 02:34:46;;;;;;;1.08;0.40;;;;;;;;;;5072858;28;20021;-67
2021/11/26 02:37:12;;;;;;;1.30;0.50;;;;;;;;;;5072626;28;20029;-67
2021/11/26 02:39:38;;;;;;;1.83;0.50;;;;;;;;;;5072972;28;20024;-67
2021/11/26 02:42:06;;;;;;;1.38;0.52;;;;;;;;;;5075191;28;20063;-66
2021/11/26 02:44:32;;;;;;;0.47;0.40;;;;;;;;;;5076265;28;20013;-67
2021/11/26 02:46:58;;;;;;;1.23;0.40;;;;;;;;;;5058790;28;20032;-67
2021/11/26 02:49:24;;;;;;;3.03;0.47;;;;;;;;;;5076556;28;20107;-67
2021/11/26 02:51:50;;;;;;;2.17;0.50;;;;;;;;;;5058351;28;20033;-68
2021/11/26 02:54:17;;;;;;;3.55;0.45;;;;;;;;;;5076379;28;20023;-67
2021/11/26 02:56:43;;;;;;;2.55;0.60;;;;;;;;;;5076344;28;20028;-67
2021/11/26 02:59:09;;;;;;;2.53;0.60;;;;;;;;;;5076356;28;20349;-68
2021/11/26 03:01:35;;;;;;;2.35;0.50;;;;;;;;;;5058527;28;20039;-67
2021/11/26 03:04:01;;;;;;;8.30;0.50;;;;;;;;;;5076316;28;20063;-67
2021/11/26 03:06:27;;;;;;;4.55;0.60;;;;;;;;;;5076289;28;20392;-68
2021/11/26 03:08:53;;;;;;;2.03;0.50;;;;;;;;;;5057693;28;20041;-68
2021/11/26 03:11:19;;;;;;;4.07;0.60;;;;;;;;;;5076058;28;20052;-67
2021/11/26 03:13:45;;;;;;;5.45;0.60;;;;;;;;;;5076208;28;20032;-67
2021/11/26 03:16:11;;;;;;;1.23;0.50;;;;;;;;;;5058079;28;20027;-67
2021/11/26 03:18:38;;;;;;;5.07;0.50;;;;;;;;;;5076232;28;20024;-67
2021/11/26 03:21:04;;;;;;;1.67;0.43;;;;;;;;;;5075800;28;20086;-68
2021/11/26 03:23:29;;;;;;;1.60;0.40;;;;;;;;;;5057942;28;20103;-67
2021/11/26 03:25:56;;;;;;;0.73;0.40;;;;;;;;;;5082400;28;20020;-66
2021/11/26 03:28:22;;;;;;;3.83;0.60;;;;;;;;;;5077964;28;20028;-67
2021/11/26 03:30:48;;;;;;;1.98;0.65;;;;;;;;;;5077937;28;20031;-66
2021/11/26 03:33:14;;;;;;;3.38;0.50;;;;;;;;;;5095938;28;20016;-66
2021/11/26 03:35:40;;;;;;;0.93;0.40;;;;;;;;;;5095952;28;20086;-67
2021/11/26 03:38:06;;;;;;;3.17;0.68;;;;;;;;;;5095850;28;20507;-66
2021/11/26 03:40:32;;;;;;;3.60;0.60;;;;;;;;;;5096163;28;20024;-66
2021/11/26 03:42:59;;;;;;;2.05;0.70;;;;;;;;;;5075272;28;20037;-66
2021/11/26 03:45:27;;;;;;;1.05;0.52;;;;;;;;;;5057578;28;20115;-66
2021/11/26 03:47:54;;;;;;;3.00;0.50;;;;;;;;;;5075470;28;20752;-66
2021/11/26 03:50:20;;;;;;;2.75;0.50;;;;;;;;;;5075241;28;20079;-66
2021/11/26 03:52:46;;;;;;;3.25;0.70;;;;;;;;;;5074353;28;20016;-66
2021/11/26 03:55:14;;;;;;;2.38;0.63;;;;;;;;;;5057304;28;20082;-67
2021/11/26 03:57:40;;;;;;;2.30;0.63;;;;;;;;;;5075048;28;20472;-66
2021/11/26 04:00:07;;;;;;;2.10;0.60;;;;;;;;;;5075116;28;20468;-66
2021/11/26 04:02:33;;;;;;;4.22;0.80;;;;;;;;;;5075192;28;20430;-66
2021/11/26 04:04:59;;;;;;;4.90;0.82;;;;;;;;;;5075172;28;20468;-65
2021/11/26 04:07:25;;;;;;;5.22;0.68;;;;;;;;;;5075096;28;20033;-64
2021/11/26 04:09:51;;;;;;;3.65;0.68;;;;;;;;;;5074021;28;20032;-63
2021/11/26 04:12:17;;;;;;;3.45;1.05;;;;;;;;;;5074729;28;20052;-63
2021/11/26 04:14:43;;;;;;;3.58;0.93;;;;;;;;;;5075071;28;20074;-66
2021/11/26 04:17:10;;;;;;;5.18;1.17;;;;;;;;;;5056871;28;20461;-67
2021/11/26 04:19:38;;;;;;;3.25;1.00;;;;;;;;;;5057021;28;20056;-67
2021/11/26 04:22:04;;;;;;;3.92;0.90;;;;;;;;;;5074997;28;20025;-68
2021/11/26 04:24:30;;;;;;;3.63;1.02;;;;;;;;;;5075260;28;20024;-69
2021/11/26 04:26:56;;;;;;;3.03;1.05;;;;;;;;;;5076345;28;20445;-67
2021/11/26 04:29:22;;;;;;;4.82;1.30;;;;;;;;;;5056662;28;20032;-68
2021/11/26 04:31:48;;;;;;;6.13;1.08;;;;;;;;;;5074601;28;20016;-69
2021/11/26 04:34:14;;;;;;;5.78;1.13;;;;;;;;;;5056805;28;20082;-67
2021/11/26 04:36:40;;;;;;;3.75;1.35;;;;;;;;;;5056786;28;20032;-68
2021/11/26 04:39:06;;;;;;;6.57;1.52;;;;;;;;;;5074752;28;20021;-69
2021/11/26 04:41:32;;;;;;;4.97;1.20;;;;;;;;;;5074394;28;20040;-69
2021/11/26 04:43:58;;;;;;;3.28;1.08;;;;;;;;;;5074595;28;20028;-68
2021/11/26 04:46:24;;;;;;;5.15;1.15;;;;;;;;;;5074333;28;20044;-67
2021/11/26 04:48:50;;;;;;;3.95;1.20;;;;;;;;;;5074499;28;20024;-68
2021/11/26 04:51:16;;;;;;;5.95;1.40;;;;;;;;;;5074282;28;20091;-67
2021/11/26 04:53:42;;;;;;;4.82;1.17;;;;;;;;;;5074519;28;20020;-67
2021/11/26 04:56:08;;;;;;;3.40;1.00;;;;;;;;;;5056105;28;20120;-68
2021/11/26 04:58:35;;;;;;;3.58;0.90;;;;;;;;;;5074335;28;20456;-67
2021/11/26 05:01:05;;;;;;;4.63;1.42;;;;;;;;;;5074545;28;20033;-67
2021/11/26 05:03:31;;;;;;;5.22;1.20;;;;;;;;;;5074238;28;20031;-67
2021/11/26 05:05:58;;;;;;;5.95;1.10;;;;;;;;;;5073958;28;20498;-67
2021/11/26 05:08:25;;;;;;;4.22;1.27;;;;;;;;;;5074038;28;20047;-67
2021/11/26 05:10:52;;;;;;;4.35;1.27;;;;;;;;;;5073728;28;20051;-66
2021/11/26 05:13:23;;;;;;;4.38;1.20;;;;;;;;;;5073313;28;20025;-67
2021/11/26 05:15:49;;;;;;;2.70;1.10;;;;;;;;;;5073749;28;20352;-66
2021/11/26 05:18:15;;;;;;;3.17;1.00;;;;;;;;;;5073797;28;20392;-65
2021/11/26 05:20:42;;;;;;;7.38;1.50;;;;;;;;;;5055914;28;20031;-67
2021/11/26 05:23:09;;;;;;;3.10;1.00;;;;;;;;;;5073580;28;20031;-68
2021/11/26 05:25:35;;;;;;;3.97;1.10;;;;;;;;;;5077667;28;20024;-67
2021/11/26 05:28:01;;;;;;;4.93;1.00;;;;;;;;;;5075523;28;20080;-68
2021/11/26 05:30:27;;;;;;;4.70;1.27;;;;;;;;;;5094064;28;20055;-69
2021/11/26 05:32:53;;;;;;;3.17;1.15;;;;;;;;;;5075654;28;20035;-69
2021/11/26 05:35:20;;;;;;;4.35;1.00;;;;;;;;;;5075880;28;20027;-67
2021/11/26 05:37:47;;;;;;;3.85;1.20;;;;;;;;;;5075552;28;20020;-68
2021/11/26 05:40:13;;;;;;;3.40;1.00;;;;;;;;;;5093772;28;20024;-67
2021/11/26 05:42:39;;;;;;;5.55;1.20;;;;;;;;;;5091092;28;20503;-68
2021/11/26 05:45:06;;;;;;;8.13;1.45;;;;;;;;;;5073546;28;20537;-67
2021/11/26 05:47:33;;;;;;;7.57;1.27;;;;;;;;;;5073389;28;20338;-69
2021/11/26 05:49:59;;;;;;;4.50;1.08;;;;;;;;;;5073077;28;20044;-68
2021/11/26 05:52:24;;;;;;;7.03;1.35;;;;;;;;;;5073141;28;20032;-66
2021/11/26 05:54:50;;;;;;;4.35;1.30;;;;;;;;;;5073087;28;20032;-67
2021/11/26 05:57:16;;;;;;;10.48;1.20;;;;;;;;;;5072957;28;20056;-64
2021/11/26 05:59:42;;;;;;;9.30;1.30;;;;;;;;;;5054907;28;20032;-65
2021/11/26 06:02:08;;;;;;;5.93;1.08;;;;;;;;;;5073366;28;20024;-65
2021/11/26 06:04:34;;;;;;;5.13;0.85;;;;;;;;;;5072954;28;20033;-64
2021/11/26 06:07:00;;;;;;;2.35;0.90;;;;;;;;;;5072968;28;20044;-64
2021/11/26 06:09:26;;;;;;;10.80;1.30;;;;;;;;;;5072767;28;20054;-64
2021/11/26 06:11:52;;;;;;;4.25;1.10;;;;;;;;;;5067788;28;20048;-65
2021/11/26 06:14:18;;;;;;;4.38;1.10;;;;;;;;;;5065582;28;20487;-64
2021/11/26 06:16:44;;;;;;;2.25;1.00;;;;;;;;;;5054292;28;20064;-65
2021/11/26 06:19:10;;;;;;;8.73;1.42;;;;;;;;;;5072975;28;20021;-65
2021/11/26 06:21:36;;;;;;;3.95;1.10;;;;;;;;;;5054771;28;20388;-64
2021/11/26 06:24:02;;;;;;;4.18;1.13;;;;;;;;;;5072755;28;20159;-64
2021/11/26 06:26:28;;;;;;;2.10;1.00;;;;;;;;;;5072594;28;20501;-64
2021/11/26 06:28:54;;;;;;;3.47;1.00;;;;;;;;;;5051802;28;20508;-64
2021/11/26 06:31:20;;;;;;;6.38;1.08;;;;;;;;;;5072523;28;20139;-63
2021/11/26 06:33:46;;;;;;;3.72;1.02;;;;;;;;;;5072738;28;20024;-64
2021/11/26 06:36:12;;;;;;;4.57;1.10;;;;;;;;;;5072354;28;20471;-64
2021/11/26 06:38:38;;;;;;;5.38;1.25;;;;;;;;;;5054432;28;20045;-64
2021/11/26 06:41:04;;;;;;;19.42;1.20;;;;;;;;;;5054303;28;20040;-64
2021/11/26 06:43:30;;;;;;;26.55;1.20;;;;;;;;;;5054655;28;20036;-64
2021/11/26 06:45:56;;;;;;;16.88;1.20;;;;;;;;;;5072660;28;20078;-64
2021/11/26 06:48:27;;;;;;;6.35;0.93;;;;;;;;;;5072581;28;20029;-64
2021/11/26 06:50:53;;;;;;;13.50;1.30;;;;;;;;;;5072681;28;20036;-65
2021/11/26 06:53:18;;;;;;;11.32;1.17;;;;;;;;;;5072327;28;20039;-65
2021/11/26 06:55:45;;;;;;;9.27;1.00;;;;;;;;;;5072370;28;20056;-64
2021/11/26 06:58:11;;;;;;;15.80;1.58;;;;;;;;;;5072335;28;20415;-64
2021/11/26 07:00:37;;;;;;;11.05;1.17;;;;;;;;;;5071754;28;20104;-63
2021/11/26 07:03:03;;;;;;;8.20;1.10;;;;;;;;;;5072409;28;20099;-63
2021/11/26 07:05:29;;;;;;;6.28;0.88;;;;;;;;;;5072352;28;20020;-64
2021/11/26 07:07:55;;;;;;;7.20;1.20;;;;;;;;;;5071979;28;20039;-64
2021/11/26 07:10:21;;;;;;;7.95;1.33;;;;;;;;;;5072008;28;20036;-64
2021/11/26 07:12:47;;;;;;;16.17;1.33;;;;;;;;;;5072248;28;20041;-64
2021/11/26 07:15:14;;;;;;;13.98;1.10;;;;;;;;;;5071301;28;20385;-66
2021/11/26 07:17:40;;;;;;;5.68;0.98;;;;;;;;;;5034213;28;20025;-66
2021/11/26 07:20:07;;;;;;;13.45;1.50;;;;;;;;;;5052654;28;20027;-69
2021/11/26 07:22:33;;;;;;;23.75;1.20;;;;;;;;;;5052403;28;20032;-69
2021/11/26 07:24:59;;;;;;;47.90;1.67;;;;;;;;;;5052460;28;20021;-66
2021/11/26 07:27:26;;;;;;;33.22;1.48;;;;;;;;;;5071261;28;20070;-66
2021/11/26 07:29:52;;;;;;;37.05;2.03;;;;;;;;;;5075403;28;20039;-68
2021/11/26 07:32:18;;;;;;;15.23;1.52;;;;;;;;;;5075522;28;20067;-69
2021/11/26 07:34:44;;;;;;;19.65;1.35;;;;;;;;;;5075211;28;20031;-68
2021/11/26 07:37:12;;;;;;;19.80;1.38;;;;;;;;;;5074722;28;20012;-68
2021/11/26 07:39:38;;;;;;;39.63;1.73;;;;;;;;;;5074274;28;20092;-67
2021/11/26 07:42:09;;;;;;;31.17;1.98;;;;;;;;;;5056853;28;20155;-67
2021/11/26 07:44:36;;;;;;;20.20;1.35;;;;;;;;;;5074602;28;20064;-66
2021/11/26 07:47:03;;;;;;;19.85;1.92;;;;;;;;;;5074129;28;20054;-67
2021/11/26 07:49:30;;;;;;;17.65;1.58;;;;;;;;;;5054724;28;20050;-68
2021/11/26 07:51:57;;;;;;;25.40;1.88;;;;;;;;;;5067139;28;20047;-68
2021/11/26 07:54:23;;;;;;;17.90;1.10;;;;;;;;;;5074482;28;20476;-67
2021/11/26 07:56:49;;;;;;;35.22;1.50;;;;;;;;;;5074090;28;20020;-68
2021/11/26 07:59:15;;;;;;;18.10;1.48;;;;;;;;;;5056589;28;20349;-68
2021/11/26 08:01:41;;;;;;;12.43;1.50;;;;;;;;;;5074505;28;20024;-68
2021/11/26 08:04:07;;;;;;;18.17;1.55;;;;;;;;;;5056442;28;20329;-66
2021/11/26 08:06:33;;;;;;;8.15;1.10;;;;;;;;;;5073795;28;20031;-65
2021/11/26 08:08:59;;;;;;;17.38;1.63;;;;;;;;;;5073564;28;20072;-65
2021/11/26 08:11:25;;;;;;;16.13;2.22;;;;;;;;;;5073331;28;20561;-66
2021/11/26 08:13:51;;;;;;;26.50;1.85;;;;;;;;;;5073936;28;20107;-65
2021/11/26 08:16:16;;;;;;;9.18;1.30;;;;;;;;;;5073667;28;20065;-65
2021/11/26 08:18:43;;;;;;;7.28;1.20;;;;;;;;;;5054586;28;20103;-66
2021/11/26 08:21:09;;;;;;;13.30;1.38;;;;;;;;;;5073433;28;20020;-66
2021/11/26 08:23:35;;;;;;;8.68;1.38;;;;;;;;;;5073512;28;20028;-66
2021/11/26 08:26:01;;;;;;;6.93;1.35;;;;;;;;;;5055483;28;20084;-66
2021/11/26 08:28:28;;;;;;;5.53;1.30;;;;;;;;;;5073655;28;20025;-66
2021/11/26 08:30:55;;;;;;;6.95;1.10;;;;;;;;;;5073789;28;20032;-66
2021/11/26 08:33:23;;;;;;;7.82;1.73;;;;;;;;;;5073844;28;20062;-66
2021/11/26 08:35:49;;;;;;;6.38;1.63;;;;;;;;;;5072808;28;20028;-66
2021/11/26 08:38:15;;;;;;;17.10;1.88;;;;;;;;;;5055845;28;20035;-66
2021/11/26 08:40:41;;;;;;;8.52;1.40;;;;;;;;;;5073735;28;20016;-65
2021/11/26 08:43:07;;;;;;;6.68;1.38;;;;;;;;;;5073687;28;20043;-65
2021/11/26 08:45:33;;;;;;;6.63;1.35;;;;;;;;;;5073851;28;20016;-65
2021/11/26 08:48:00;;;;;;;4.95;1.42;;;;;;;;;;5073623;28;20029;-66
2021/11/26 08:50:26;;;;;;;4.32;1.30;;;;;;;;;;5073767;28;20425;-66
2021/11/26 08:52:52;;;;;;;10.45;1.70;;;;;;;;;;5072978;28;20083;-67
2021/11/26 08:55:19;;;;;;;5.95;1.33;;;;;;;;;;5072911;28;20107;-63
2021/11/26 08:57:53;;;;;;;4.45;1.10;;;;;;;;;;5072856;28;20021;-65
2021/11/26 09:00:20;;;;;;;9.32;1.48;;;;;;;;;;5071025;28;20048;-65
2021/11/26 09:02:46;;;;;;;5.88;1.50;;;;;;;;;;5052582;28;20107;-65
2021/11/26 09:05:12;;;;;;;4.72;1.15;;;;;;;;;;5073132;28;20112;-65
2021/11/26 09:07:37;;;;;;;3.70;1.40;;;;;;;;;;5072633;28;20024;-63
2021/11/26 09:10:04;;;;;;;3.42;1.30;;;;;;;;;;5069321;28;20044;-66
2021/11/26 09:12:30;;;;;;;5.65;1.55;;;;;;;;;;5061125;28;20490;-66
2021/11/26 09:14:56;;;;;;;7.90;1.50;;;;;;;;;;5054507;28;20086;-66
2021/11/26 09:17:22;;;;;;;5.70;1.40;;;;;;;;;;5053183;28;20100;-66
2021/11/26 09:19:48;;;;;;;6.10;1.88;;;;;;;;;;5053077;28;20028;-66
2021/11/26 09:22:14;;;;;;;4.80;1.40;;;;;;;;;;5053073;28;20033;-66
2021/11/26 09:24:40;;;;;;;3.95;1.10;;;;;;;;;;5052887;28;20087;-66
2021/11/26 09:27:07;;;;;;;5.00;1.30;;;;;;;;;;5051968;28;20380;-66
2021/11/26 09:29:33;;;;;;;4.90;1.13;;;;;;;;;;5052831;28;20496;-67
2021/11/26 09:32:00;;;;;;;5.97;1.40;;;;;;;;;;5052858;28;20033;-67
2021/11/26 09:34:26;;;;;;;6.43;1.67;;;;;;;;;;5052738;28;20534;-67
2021/11/26 09:36:52;;;;;;;6.68;1.00;;;;;;;;;;5052977;28;20061;-67
2021/11/26 09:39:18;;;;;;;5.15;1.20;;;;;;;;;;5034812;28;20449;-67
2021/11/26 09:41:46;;;;;;;8.60;1.50;;;;;;;;;;5052729;28;20068;-68
2021/11/26 09:44:13;;;;;;;6.32;1.50;;;;;;;;;;5033705;28;20064;-66
2021/11/26 09:46:40;;;;;;;5.45;1.58;;;;;;;;;;5052635;28;20036;-66
2021/11/26 09:49:07;;;;;;;6.55;1.48;;;;;;;;;;5066136;28;20470;-66
2021/11/26 09:51:34;;;;;;;6.65;1.50;;;;;;;;;;5061474;28;20469;-66
2021/11/26 09:54:00;;;;;;;8.48;1.50;;;;;;;;;;5038392;28;20040;-66
2021/11/26 09:56:27;;;;;;;8.93;1.60;;;;;;;;;;5063092;28;20025;-66
2021/11/26 09:58:53;;;;;;;3.70;1.35;;;;;;;;;;5057901;28;20515;-66
2021/11/26 10:01:20;;;;;;;8.00;1.70;;;;;;;;;;5072588;28;20028;-67
2021/11/26 10:03:50;;;;;;;7.90;1.88;;;;;;;;;;5054336;28;20108;-66
2021/11/26 10:06:25;;;;;;;7.93;1.73;;;;;;;;;;5067881;28;20021;-66
2021/11/26 10:08:59;;;;;;;5.43;1.67;;;;;;;;;;5052128;28;20029;-64
2021/11/26 10:11:27;;;;;;;6.70;1.63;;;;;;;;;;5045515;28;20052;-64
2021/11/26 10:13:54;;;;;;;7.85;1.58;;;;;;;;;;5054062;28;20107;-65
2021/11/26 10:16:22;;;;;;;8.05;2.45;;;;;;;;;;5071457;28;20063;-65
2021/11/26 10:18:49;;;;;;;5.88;1.63;;;;;;;;;;5071469;28;20079;-65
2021/11/26 10:21:15;;;;;;;7.35;1.67;;;;;;;;;;5072012;28;20029;-65
2021/11/26 10:23:46;;;;;;;5.60;1.65;;;;;;;;;;5072152;28;20036;-65
2021/11/26 10:26:15;;;;;;;5.88;1.70;;;;;;;;;;5053995;28;20040;-66
2021/11/26 10:28:43;;;;;;;8.18;1.52;;;;;;;;;;5071848;28;20012;-65
2021/11/26 10:31:17;;;;;;;9.82;1.85;;;;;;;;;;5072009;28;20016;-65
2021/11/26 10:33:43;;;;;;;6.55;1.60;;;;;;;;;;5069330;28;20028;-66
2021/11/26 10:36:10;;;;;;;6.35;1.58;;;;;;;;;;5053919;28;20032;-66
2021/11/26 10:38:37;;;;;;;5.53;1.40;;;;;;;;;;5071867;28;20020;-66
2021/11/26 10:41:05;;;;;;;7.78;1.65;;;;;;;;;;5066510;28;20543;-66
2021/11/26 10:43:50;;;;;;;6.80;1.42;;;;;;;;;;5071906;28;20028;-66
2021/11/26 10:59:47;;;;;;;7.65;1.55;;;;;;;;;;5069507;28;20068;-66
2021/11/26 11:02:23;;;;;;;5.03;1.55;;;;;;;;;;5072269;28;20100;-67
2021/11/26 11:04:49;;;;;;;8.98;1.50;;;;;;;;;;5075983;28;20115;-66
2021/11/26 11:07:16;;;;;;;6.65;1.42;;;;;;;;;;5075483;28;20111;-66
2021/11/26 11:09:52;;;;;;;4.63;1.65;;;;;;;;;;5075444;28;20028;-67
2021/11/26 11:12:18;;;;;;;8.48;1.73;;;;;;;;;;5075334;28;20393;-67
2021/11/26 11:14:54;;;;;;;11.90;1.95;;;;;;;;;;5057299;28;20034;-72
2021/11/26 11:17:20;;;;;;;22.23;2.42;;;;;;;;;;5075436;28;20038;-67
2021/11/26 11:19:46;;;;;;;25.20;3.22;;;;;;;;;;5075430;28;20020;-68
2021/11/26 11:22:12;;;;;;;16.73;2.22;;;;;;;;;;5075113;28;20025;-67
2021/11/26 11:24:39;;;;;;;21.70;2.30;;;;;;;;;;5052783;28;20027;-68
2021/11/26 11:27:05;;;;;;;16.80;2.28;;;;;;;;;;5053304;28;20044;-68
2021/11/26 11:29:31;;;;;;;21.52;2.22;;;;;;;;;;5075067;28;20040;-67
2021/11/26 11:31:58;;;;;;;23.50;1.90;;;;;;;;;;5075323;28;20027;-68
2021/11/26 11:34:26;;;;;;;12.52;2.20;;;;;;;;;;5075106;28;20029;-67
2021/11/26 11:36:53;;;;;;;14.00;1.95;;;;;;;;;;5075062;28;20021;-67
2021/11/26 11:39:19;;;;;;;9.15;1.70;;;;;;;;;;5075262;28;20035;-67
2021/11/26 11:41:49;;;;;;;15.32;1.60;;;;;;;;;;5074812;28;20028;-67
2021/11/26 11:44:27;;;;;;;9.18;1.67;;;;;;;;;;5074931;28;20032;-68
2021/11/26 11:46:54;;;;;;;6.55;1.40;;;;;;;;;;5075294;28;20024;-69
2021/11/26 11:49:28;;;;;;;7.10;2.00;;;;;;;;;;5074728;28;20157;-68
2021/11/26 11:51:59;;;;;;;14.00;1.60;;;;;;;;;;5056670;28;20033;-69
2021/11/26 11:54:35;;;;;;;6.78;1.55;;;;;;;;;;5056752;28;20020;-68
2021/11/26 11:57:01;;;;;;;5.60;1.85;;;;;;;;;;5074934;28;20028;-69
2021/11/26 11:59:32;;;;;;;7.07;2.08;;;;;;;;;;5074717;28;20588;-70
2021/11/26 12:01:59;;;;;;;12.10;2.00;;;;;;;;;;5074651;28;20025;-69
2021/11/26 12:04:26;;;;;;;8.88;2.10;;;;;;;;;;5074519;28;20515;-67
2021/11/26 12:06:53;;;;;;;6.00;1.90;;;;;;;;;;5074625;28;20013;-69
2021/11/26 12:09:39;;;;;;;8.93;2.60;;;;;;;;;;5074462;28;20032;-68
2021/11/26 12:12:11;;;;;;;12.68;2.72;;;;;;;;;;5056643;28;20052;-68
2021/11/26 12:14:50;;;;;;;7.13;2.38;;;;;;;;;;5073727;28;20036;-68
2021/11/26 12:17:26;;;;;;;11.52;2.45;;;;;;;;;;5073973;28;20438;-68
2021/11/26 12:20:12;;;;;;;11.35;3.17;;;;;;;;;;5074329;28;20017;-68
2021/11/26 12:22:48;;;;;;;8.98;2.90;;;;;;;;;;5074466;28;20054;-68
2021/11/26 12:25:18;;;;;;;9.60;3.03;;;;;;;;;;5075205;28;20348;-67
2021/11/26 12:27:54;;;;;;;8.45;2.92;;;;;;;;;;5076030;28;20032;-68
2021/11/26 12:30:20;;;;;;;8.80;2.80;;;;;;;;;;5094308;28;20443;-68
2021/11/26 12:32:47;;;;;;;9.68;2.97;;;;;;;;;;5094215;28;20099;-67
2021/11/26 12:35:14;;;;;;;5.38;2.25;;;;;;;;;;5094672;28;20028;-68
2021/11/26 12:37:40;;;;;;;8.18;3.03;;;;;;;;;;5094036;28;20526;-68
2021/11/26 12:40:11;;;;;;;7.90;2.97;;;;;;;;;;5094356;28;20103;-68
2021/11/26 12:42:38;;;;;;;10.32;2.95;;;;;;;;;;5087345;28;20044;-67
2021/11/26 12:45:08;;;;;;;8.15;2.85;;;;;;;;;;5074034;28;20089;-66
2021/11/26 12:48:33;;;;;;;9.05;3.38;;;;;;;;;;5073891;28;20148;-67
2021/11/26 12:51:04;;;;;;;8.93;3.08;;;;;;;;;;5084231;28;20135;-68
2021/11/26 12:53:30;;;;;;;7.15;2.50;;;;;;;;;;5078784;28;20146;-68
2021/11/26 12:55:58;;;;;;;7.63;2.90;;;;;;;;;;5073009;28;20021;-68
2021/11/26 12:58:25;;;;;;;8.73;3.08;;;;;;;;;;5073653;28;20570;-67
2021/11/26 13:00:57;;;;;;;8.32;3.22;;;;;;;;;;5052187;28;20028;-67
2021/11/26 13:03:24;;;;;;;24.92;10.32;;;;;;;;;;5073623;28;20016;-68
2021/11/26 13:05:51;;;;;;;34.92;13.43;;;;;;;;;;5071496;28;20539;-68
2021/11/26 13:08:17;;;;;;;33.95;13.88;;;;;;;;;;5054019;28;20029;-68
2021/11/26 13:10:43;;;;;;;33.80;14.18;;;;;;;;;;5073211;28;20051;-68
2021/11/26 13:13:09;;;;;;;26.85;13.00;;;;;;;;;;5061605;28;20012;-69
2021/11/26 13:15:37;;;;;;;34.17;13.70;;;;;;;;;;5047871;28;20021;-68
2021/11/26 13:18:12;;;;;;;32.05;13.73;;;;;;;;;;5062118;28;20111;-68
2021/11/26 13:20:40;;;;;;;32.33;12.02;;;;;;;;;;5062688;28;20071;-68
2021/11/26 13:23:07;;;;;;;28.80;12.30;;;;;;;;;;5054129;28;20044;-68
2021/11/26 13:25:39;;;;;;;29.42;12.07;;;;;;;;;;5052412;28;20013;-68
2021/11/26 13:28:09;;;;;;;32.05;11.93;;;;;;;;;;5052727;28;20028;-68
2021/11/26 13:30:36;;;;;;;28.75;11.30;;;;;;;;;;5052898;28;20037;-66
2021/11/26 13:33:08;;;;;;;27.13;11.02;;;;;;;;;;5052859;28;20037;-66
2021/11/26 13:35:34;;;;;;;26.80;11.00;;;;;;;;;;5051441;28;20370;-66
2021/11/26 13:38:02;;;;;;;22.33;10.10;;;;;;;;;;5053022;28;20033;-66
2021/11/26 13:40:35;;;;;;;22.70;9.23;;;;;;;;;;5053200;28;20151;-66
2021/11/26 13:43:02;;;;;;;21.17;8.70;;;;;;;;;;5053207;28;20037;-66
2021/11/26 13:45:33;;;;;;;23.33;8.68;;;;;;;;;;5052922;28;20021;-66
2021/11/26 13:47:59;;;;;;;24.13;8.98;;;;;;;;;;5052781;28;20032;-64
2021/11/26 13:50:25;;;;;;;18.02;7.80;;;;;;;;;;5051831;28;20188;-64
2021/11/26 13:52:52;;;;;;;18.83;7.35;;;;;;;;;;5052938;28;20111;-65
2021/11/26 13:55:18;;;;;;;21.88;7.63;;;;;;;;;;5052487;28;20033;-65
2021/11/26 13:57:44;;;;;;;15.90;6.53;;;;;;;;;;5052909;28;20032;-65
2021/11/26 14:00:11;;;;;;;16.70;7.68;;;;;;;;;;5053045;28;20021;-65
2021/11/26 14:02:52;;;;;;;15.48;6.45;;;;;;;;;;5034676;28;20380;-67
2021/11/26 14:05:31;;;;;;;14.73;6.28;;;;;;;;;;5052501;28;20049;-65
2021/11/26 14:08:01;;;;;;;12.88;5.82;;;;;;;;;;5052072;28;20408;-66
2021/11/26 14:10:27;;;;;;;13.07;5.93;;;;;;;;;;5055605;28;20044;-66
2021/11/26 14:12:57;;;;;;;14.38;6.38;;;;;;;;;;5044200;28;20430;-67
2021/11/26 14:15:23;;;;;;;12.88;5.38;;;;;;;;;;5072427;28;20071;-68
2021/11/26 14:17:49;;;;;;;14.88;5.38;;;;;;;;;;5072306;28;20412;-69
2021/11/26 14:20:23;;;;;;;12.48;5.75;;;;;;;;;;5070974;28;20413;-66
2021/11/26 14:22:49;;;;;;;11.40;4.95;;;;;;;;;;5051741;28;20384;-68
2021/11/26 14:25:15;;;;;;;8.90;4.50;;;;;;;;;;5052085;28;20524;-64
2021/11/26 14:27:42;;;;;;;11.70;4.88;;;;;;;;;;5052145;28;20032;-66
2021/11/26 14:30:10;;;;;;;9.63;4.35;;;;;;;;;;5034086;28;20033;-64
2021/11/26 14:32:37;;;;;;;11.93;4.22;;;;;;;;;;5052321;28;20032;-68
2021/11/26 14:35:07;;;;;;;8.05;3.60;;;;;;;;;;5052280;28;20036;-66
2021/11/26 14:37:34;;;;;;;7.43;3.47;;;;;;;;;;5053717;28;20029;-65
2021/11/26 14:40:00;;;;;;;7.25;3.58;;;;;;;;;;5056603;28;20029;-68
2021/11/26 14:42:30;;;;;;;7.15;3.38;;;;;;;;;;5056528;28;20024;-67
2021/11/26 14:44:57;;;;;;;6.55;3.40;;;;;;;;;;5056137;28;20108;-65
2021/11/26 14:47:26;;;;;;;5.30;2.85;;;;;;;;;;5056351;28;20028;-64
2021/11/26 14:49:53;;;;;;;6.40;2.80;;;;;;;;;;5054966;28;20112;-63
2021/11/26 14:52:20;;;;;;;6.75;2.88;;;;;;;;;;5035899;28;20021;-63